createdAt,value
2018-01-12T00:00:14.483Z,67.00
2018-01-12T00:02:17.886Z,67.10
2018-01-12T00:04:21.211Z,66.50
2018-01-12T00:06:24.583Z,67.20
2018-01-12T00:08:28.702Z,67.60
2018-01-12T00:10:32.175Z,67.50
2018-01-12T00:12:36.298Z,67.80
2018-01-12T00:14:39.653Z,67.90
2018-01-12T00:16:43.051Z,67.10
2018-01-12T00:18:46.435Z,67.40
2018-01-12T00:20:49.819Z,68.00
2018-01-12T00:22:53.167Z,67.80
2018-01-12T00:24:56.540Z,67.50
2018-01-12T00:26:59.895Z,67.60
2018-01-12T00:29:03.260Z,67.30
2018-01-12T00:31:06.653Z,67.30
2018-01-12T00:33:09.980Z,67.50
2018-01-12T00:35:13.311Z,67.30
2018-01-12T00:37:17.429Z,67.20
2018-01-12T00:39:20.835Z,67.30
2018-01-12T00:41:24.281Z,67.30
2018-01-12T00:43:27.674Z,66.90
2018-01-12T00:45:31.025Z,66.90
2018-01-12T00:47:34.415Z,67.00
2018-01-12T00:49:37.766Z,66.90
2018-01-12T00:51:41.898Z,67.10
2018-01-12T00:53:45.307Z,67.00
2018-01-12T00:55:48.678Z,66.40
2018-01-12T00:57:52.845Z,66.70
2018-01-12T00:59:56.257Z,66.70
2018-01-12T01:01:59.649Z,66.90
2018-01-12T01:04:02.991Z,67.10
2018-01-12T01:06:06.348Z,66.50
2018-01-12T01:08:09.766Z,66.80
2018-01-12T01:10:13.108Z,66.50
2018-01-12T01:12:16.656Z,66.80
2018-01-12T01:14:20.003Z,67.20
2018-01-12T01:16:23.388Z,67.20
2018-01-12T01:18:26.786Z,67.30
2018-01-12T01:20:30.145Z,67.10
2018-01-12T01:22:33.713Z,66.90
2018-01-12T01:24:37.091Z,67.20
2018-01-12T01:26:40.495Z,67.40
2018-01-12T01:28:43.937Z,67.00
2018-01-12T01:30:47.378Z,66.70
2018-01-12T01:32:51.518Z,66.70
2018-01-12T01:34:54.864Z,66.30
2018-01-12T01:36:58.973Z,66.60
2018-01-12T01:39:03.124Z,66.50
2018-01-12T01:41:06.491Z,66.40
2018-01-12T01:43:09.856Z,66.80
2018-01-12T01:45:13.967Z,67.20
2018-01-12T01:47:18.093Z,66.60
2018-01-12T01:49:21.464Z,66.50
2018-01-12T01:51:24.816Z,67.10
2018-01-12T01:53:28.209Z,67.00
2018-01-12T01:55:31.596Z,67.10
2018-01-12T01:57:34.922Z,67.30
2018-01-12T01:59:39.295Z,67.60
2018-01-12T02:01:43.396Z,67.30
2018-01-12T02:03:46.780Z,67.50
2018-01-12T02:05:50.187Z,67.80
2018-01-12T02:07:53.582Z,67.30
2018-01-12T02:09:56.968Z,67.40
2018-01-12T02:12:00.311Z,67.90
2018-01-12T02:14:04.444Z,66.90
2018-01-12T02:16:08.611Z,67.70
2018-01-12T02:18:11.989Z,67.50
2018-01-12T02:20:15.358Z,67.40
2018-01-12T02:22:18.713Z,67.50
2018-01-12T02:24:22.851Z,67.40
2018-01-12T02:26:26.245Z,67.50
2018-01-12T02:28:29.700Z,67.30
2018-01-12T02:30:33.096Z,67.30
2018-01-12T02:32:37.181Z,66.90
2018-01-12T02:34:40.564Z,66.90
2018-01-12T02:36:43.957Z,67.30
2018-01-12T02:38:47.274Z,67.50
2018-01-12T02:40:50.643Z,67.00
2018-01-12T02:42:54.039Z,67.30
2018-01-12T02:44:57.391Z,67.20
2018-01-12T02:47:00.766Z,67.30
2018-01-12T02:49:04.617Z,67.20
2018-01-12T02:51:07.987Z,67.50
2018-01-12T02:53:11.409Z,67.40
2018-01-12T02:55:14.756Z,67.40
2018-01-12T02:57:18.123Z,67.70
2018-01-12T02:59:21.462Z,67.30
2018-01-12T03:01:24.806Z,67.60
2018-01-12T03:03:28.946Z,67.60
2018-01-12T03:05:32.314Z,67.50
2018-01-12T03:07:36.495Z,67.40
2018-01-12T03:09:40.623Z,67.80
2018-01-12T03:11:43.984Z,67.80
2018-01-12T03:13:47.368Z,67.50
2018-01-12T03:15:50.702Z,67.70
2018-01-12T03:17:54.087Z,67.50
2018-01-12T03:19:57.434Z,67.90
2018-01-12T03:22:00.751Z,67.70
2018-01-12T03:24:04.157Z,67.90
2018-01-12T03:26:07.501Z,67.50
2018-01-12T03:28:10.836Z,67.10
2018-01-12T03:30:14.246Z,67.40
2018-01-12T03:32:18.398Z,67.50
2018-01-12T03:34:21.810Z,67.50
2018-01-12T03:36:25.149Z,67.30
2018-01-12T03:38:29.253Z,67.70
2018-01-12T03:40:33.386Z,67.80
2018-01-12T03:42:36.756Z,67.80
2018-01-12T03:44:40.919Z,67.90
2018-01-12T03:46:44.251Z,67.80
2018-01-12T03:48:47.643Z,67.80
2018-01-12T03:50:51.747Z,67.70
2018-01-12T03:52:55.865Z,68.40
2018-01-12T03:54:59.306Z,68.40
2018-01-12T03:57:02.690Z,68.80
2018-01-12T03:59:06.772Z,68.80
2018-01-12T04:01:10.158Z,68.50
2018-01-12T04:03:13.508Z,68.60
2018-01-12T04:05:16.911Z,68.60
2018-01-12T04:07:20.233Z,68.30
2018-01-12T04:09:24.341Z,68.60
2018-01-12T04:11:27.771Z,68.50
2018-01-12T04:13:31.132Z,68.50
2018-01-12T04:15:35.021Z,68.50
2018-01-12T04:17:39.618Z,68.50
2018-01-12T04:19:43.191Z,68.50
2018-01-12T04:21:46.648Z,68.60
2018-01-12T04:23:50.014Z,68.90
2018-01-12T04:25:54.146Z,69.30
2018-01-12T04:27:58.268Z,69.30
2018-01-12T04:30:01.621Z,69.20
2018-01-12T04:32:05.011Z,68.10
2018-01-12T04:34:08.392Z,69.20
2018-01-12T04:36:14.753Z,69.00
2018-01-12T04:38:19.260Z,69.70
2018-01-12T04:40:24.676Z,69.30
2018-01-12T04:42:28.469Z,69.30
2018-01-12T04:44:32.455Z,70.10
2018-01-12T04:46:37.712Z,70.00
2018-01-12T04:48:41.504Z,69.90
2018-01-12T04:50:50.198Z,70.20
2018-01-12T04:52:53.896Z,70.10
2018-01-12T04:54:58.172Z,70.00
2018-01-12T04:57:01.544Z,70.00
2018-01-12T04:59:05.094Z,70.10
2018-01-12T05:01:09.630Z,69.80
2018-01-12T05:03:13.101Z,69.70
2018-01-12T05:05:16.600Z,69.60
2018-01-12T05:07:20.029Z,69.40
2018-01-12T05:09:23.433Z,69.60
2018-01-12T05:11:26.818Z,69.30
2018-01-12T05:13:30.235Z,69.60
2018-01-12T05:15:33.625Z,69.60
2018-01-12T05:17:36.960Z,69.10
2018-01-12T05:19:40.388Z,69.70
2018-01-12T05:21:45.454Z,69.90
2018-01-12T05:23:48.839Z,69.80
2018-01-12T05:25:52.195Z,69.90
2018-01-12T05:27:55.566Z,69.80
2018-01-12T05:29:59.697Z,69.70
2018-01-12T05:32:03.033Z,69.50
2018-01-12T05:34:06.365Z,69.60
2018-01-12T05:36:09.732Z,69.80
2018-01-12T05:38:13.852Z,69.90
2018-01-12T05:40:17.233Z,69.70
2018-01-12T05:42:20.580Z,69.90
2018-01-12T05:44:23.898Z,69.90
2018-01-12T05:46:27.238Z,70.00
2018-01-12T05:48:32.180Z,70.60
2018-01-12T05:50:35.573Z,70.50
2018-01-12T05:52:38.964Z,70.70
2018-01-12T05:54:42.338Z,71.80
2018-01-12T05:56:46.460Z,72.40
2018-01-12T05:58:50.748Z,72.70
2018-01-12T06:01:07.079Z,72.20
2018-01-12T06:03:22.309Z,71.90
2018-01-12T06:05:37.553Z,72.30
2018-01-12T06:07:40.999Z,72.20
2018-01-12T06:09:44.403Z,71.90
2018-01-12T06:11:47.894Z,72.50
2018-01-12T06:13:51.352Z,73.10
2018-01-12T06:15:55.516Z,72.90
2018-01-12T06:17:58.906Z,72.90
2018-01-12T06:20:02.336Z,73.20
2018-01-12T06:22:06.565Z,72.50
2018-01-12T06:24:10.762Z,72.60
2018-01-12T06:26:14.189Z,72.20
2018-01-12T06:28:18.397Z,73.00
2018-01-12T06:30:21.880Z,73.00
2018-01-12T06:32:26.052Z,71.50
2018-01-12T06:34:29.475Z,71.60
2018-01-12T06:36:33.621Z,71.50
2018-01-12T06:38:37.065Z,71.50
2018-01-12T06:40:40.434Z,71.40
2018-01-12T06:42:43.873Z,71.50
2018-01-12T06:44:48.047Z,71.40
2018-01-12T06:46:51.544Z,71.50
2018-01-12T06:48:55.151Z,71.40
2018-01-12T06:50:59.409Z,71.10
2018-01-12T06:53:03.049Z,71.10
2018-01-12T06:55:06.680Z,70.30
2018-01-12T06:57:10.097Z,70.40
2018-01-12T06:59:13.570Z,72.00
2018-01-12T07:01:17.710Z,71.00
2018-01-12T07:03:21.186Z,71.10
2018-01-12T07:05:24.842Z,71.20
2018-01-12T07:07:28.250Z,71.00
2018-01-12T07:09:31.769Z,71.00
2018-01-12T07:11:35.222Z,70.90
2018-01-12T07:13:39.374Z,71.40
2018-01-12T07:15:43.385Z,71.50
2018-01-12T07:17:47.506Z,71.40
2018-01-12T07:19:51.665Z,71.40
2018-01-12T07:22:07.811Z,71.70
2018-01-12T07:24:11.276Z,71.50
2018-01-12T07:26:15.867Z,71.20
2018-01-12T07:28:20.187Z,70.60
2018-01-12T07:30:24.548Z,70.60
2018-01-12T07:32:28.518Z,70.40
2018-01-12T07:34:31.927Z,71.00
2018-01-12T07:36:35.323Z,70.20
2018-01-12T07:38:38.683Z,70.90
2018-01-12T07:40:42.151Z,70.30
2018-01-12T07:42:46.370Z,70.60
2018-01-12T07:44:50.427Z,70.70
2018-01-12T07:46:53.844Z,70.20
2018-01-12T07:48:57.347Z,70.50
2018-01-12T07:51:00.769Z,70.80
2018-01-12T07:53:09.712Z,71.00
2018-01-12T07:55:13.124Z,70.60
2018-01-12T07:57:16.745Z,70.80
2018-01-12T07:59:20.152Z,70.80
2018-01-12T08:01:29.117Z,70.90
2018-01-12T08:03:32.523Z,70.80
2018-01-12T08:05:36.137Z,71.00
2018-01-12T08:07:40.327Z,71.10
2018-01-12T08:09:43.813Z,71.40
2018-01-12T08:11:47.578Z,70.40
2018-01-12T08:13:51.004Z,70.60
2018-01-12T08:15:54.466Z,70.80
2018-01-12T08:17:57.899Z,71.10
2018-01-12T08:20:01.259Z,71.00
2018-01-12T08:22:04.656Z,71.00
2018-01-12T08:24:09.237Z,70.30
2018-01-12T08:26:12.795Z,70.30
2018-01-12T08:28:16.243Z,70.80
2018-01-12T08:30:19.689Z,71.10
2018-01-12T08:32:23.889Z,70.80
2018-01-12T08:34:27.740Z,70.80
2018-01-12T08:36:31.151Z,70.80
2018-01-12T08:38:35.495Z,71.20
2018-01-12T08:40:39.712Z,71.20
2018-01-12T08:42:43.234Z,71.10
2018-01-12T08:44:47.388Z,71.20
2018-01-12T08:46:50.762Z,71.30
2018-01-12T08:48:54.174Z,71.40
2018-01-12T08:50:57.574Z,71.40
2018-01-12T08:53:01.268Z,71.40
2018-01-12T08:55:05.404Z,71.50
2018-01-12T08:57:10.424Z,71.70
2018-01-12T08:59:13.921Z,71.60
2018-01-12T09:01:17.313Z,71.80
2018-01-12T09:03:21.621Z,72.20
2018-01-12T09:05:25.181Z,71.90
2018-01-12T09:07:29.719Z,72.10
2018-01-12T09:09:33.240Z,72.00
2018-01-12T09:11:36.604Z,72.10
2018-01-12T09:13:51.715Z,71.70
2018-01-12T09:16:06.955Z,71.80
2018-01-12T09:20:43.123Z,71.20
2018-01-12T09:22:48.233Z,70.50
2018-01-12T09:24:51.868Z,71.10
2018-01-12T09:26:55.422Z,71.10
2018-01-12T09:28:59.622Z,70.50
2018-01-12T09:31:03.968Z,70.40
2018-01-12T09:33:07.389Z,69.80
2018-01-12T09:35:10.815Z,69.50
2018-01-12T09:37:14.223Z,69.50
2018-01-12T09:39:29.521Z,70.00
2018-01-12T09:41:33.853Z,69.70
2018-01-12T09:43:38.284Z,69.50
2018-01-12T09:45:42.638Z,69.20
2018-01-12T09:47:57.753Z,70.00
2018-01-12T09:50:05.028Z,70.00
2018-01-12T09:52:08.358Z,68.60
2018-01-12T09:54:11.809Z,66.50
2018-01-12T09:56:16.894Z,66.60
2018-01-12T09:58:21.354Z,66.30
2018-01-12T10:00:28.148Z,66.10
2018-01-12T10:02:31.573Z,66.10
2018-01-12T10:04:37.677Z,65.20
2018-01-12T10:06:42.770Z,64.40
2018-01-12T10:08:46.471Z,65.10
2018-01-12T10:10:52.681Z,64.40
2018-01-12T10:12:58.133Z,63.00
2018-01-12T10:15:03.226Z,62.30
2018-01-12T10:17:09.860Z,62.70
2018-01-12T10:19:17.481Z,62.00
2018-01-12T10:21:34.300Z,62.10
2018-01-12T10:23:40.988Z,62.00
2018-01-12T10:25:46.390Z,62.00
2018-01-12T10:27:50.592Z,61.30
2018-01-12T10:29:58.680Z,60.60
2018-01-12T10:32:09.528Z,60.00
2018-01-12T10:37:00.657Z,59.30
2018-01-12T10:39:04.198Z,60.00
2018-01-12T10:41:34.472Z,60.00
2018-01-12T10:43:38.094Z,59.20
2018-01-12T10:46:09.117Z,57.40
2018-01-12T10:48:12.571Z,57.10
2018-01-12T10:50:38.265Z,57.20
2018-01-12T10:52:56.855Z,57.90
2018-01-12T10:55:01.106Z,55.80
2018-01-12T10:57:07.290Z,55.80
2018-01-12T10:59:10.756Z,56.10
2018-01-12T11:01:14.214Z,58.30
2018-01-12T11:03:17.901Z,58.10
2018-01-12T11:05:21.365Z,55.50
2018-01-12T11:07:24.763Z,55.80
2018-01-12T11:09:28.302Z,55.80
2018-01-12T11:11:31.884Z,53.70
2018-01-12T11:13:37.039Z,54.70
2018-01-12T11:15:40.596Z,54.30
2018-01-12T11:17:44.799Z,54.60
2018-01-12T11:19:49.277Z,54.00
2018-01-12T11:21:52.714Z,51.50
2018-01-12T11:23:56.446Z,51.50
2018-01-12T11:26:00.702Z,49.70
2018-01-12T11:28:04.162Z,49.80
2018-01-12T11:30:08.398Z,49.20
2018-01-12T11:32:11.896Z,48.30
2018-01-12T11:34:16.062Z,48.80
2018-01-12T11:36:19.418Z,48.80
2018-01-12T11:38:22.818Z,49.30
2018-01-12T11:40:26.982Z,48.30
2018-01-12T11:42:30.503Z,49.80
2018-01-12T11:44:33.908Z,51.20
2018-01-12T11:46:37.270Z,50.40
2018-01-12T11:48:41.514Z,51.30
2018-01-12T11:50:45.791Z,51.30
2018-01-12T11:52:49.236Z,51.30
2018-01-12T11:54:52.632Z,51.00
2018-01-12T11:56:56.805Z,51.00
2018-01-12T11:59:00.285Z,50.90
2018-01-12T12:01:04.503Z,49.80
2018-01-12T12:03:07.911Z,49.80
2018-01-12T12:05:11.333Z,49.40
2018-01-12T12:07:14.774Z,49.60
2018-01-12T12:09:18.932Z,50.50
2018-01-12T12:11:22.344Z,50.70
2018-01-12T12:13:25.748Z,50.10
2018-01-12T12:15:29.868Z,49.30
2018-01-12T12:17:34.959Z,49.90
2018-01-12T12:19:38.642Z,49.80
2018-01-12T12:21:42.188Z,49.50
2018-01-12T12:23:45.612Z,47.70
2018-01-12T12:25:49.781Z,46.70
2018-01-12T12:27:53.814Z,46.60
2018-01-12T12:29:57.233Z,44.00
2018-01-12T12:32:03.876Z,39.50
2018-01-12T12:34:07.285Z,39.50
2018-01-12T12:36:12.824Z,39.30
2018-01-12T12:38:17.002Z,39.70
2018-01-12T12:40:20.867Z,40.00
2018-01-12T12:42:24.758Z,40.20
2018-01-12T12:44:28.186Z,41.90
2018-01-12T12:46:32.254Z,41.40
2018-01-12T12:48:36.649Z,40.50
2018-01-12T12:50:42.331Z,43.40
2018-01-12T12:52:45.814Z,43.60
2018-01-12T12:54:49.944Z,45.60
2018-01-12T12:57:02.633Z,46.60
2018-01-12T12:59:06.087Z,44.90
2018-01-12T13:01:09.457Z,46.80
2018-01-12T13:03:12.852Z,46.80
2018-01-12T13:05:18.160Z,46.60
2018-01-12T13:07:22.703Z,47.50
2018-01-12T13:09:26.965Z,47.30
2018-01-12T13:11:30.732Z,46.70
2018-01-12T13:13:34.338Z,47.30
2018-01-12T13:15:37.861Z,46.10
2018-01-12T13:17:47.501Z,46.50
2018-01-12T13:19:50.968Z,46.60
2018-01-12T13:21:55.834Z,45.30
2018-01-12T13:23:59.304Z,44.80
2018-01-12T13:26:02.803Z,45.50
2018-01-12T13:28:07.009Z,46.60
2018-01-12T13:30:10.496Z,46.80
2018-01-12T13:32:13.967Z,46.50
2018-01-12T13:34:17.409Z,44.90
2018-01-12T13:36:21.739Z,45.30
2018-01-12T13:38:26.744Z,44.50
2018-01-12T13:40:36.333Z,43.30
2018-01-12T13:42:54.928Z,44.40
2018-01-12T13:45:10.339Z,44.40
2018-01-12T13:47:15.425Z,44.40
2018-01-12T13:49:18.812Z,44.60
2018-01-12T13:51:23.571Z,44.10
2018-01-12T13:53:27.040Z,43.10
2018-01-12T13:55:30.681Z,42.30
2018-01-12T13:57:34.846Z,43.60
2018-01-12T13:59:38.257Z,43.80
2018-01-12T14:01:42.447Z,43.70
2018-01-12T14:03:47.387Z,43.40
2018-01-12T14:05:50.828Z,43.60
2018-01-12T14:07:54.293Z,43.10
2018-01-12T14:09:58.514Z,42.00
2018-01-12T14:12:01.965Z,40.80
2018-01-12T14:14:05.352Z,39.70
2018-01-12T14:16:11.826Z,41.40
2018-01-12T14:18:15.704Z,40.90
2018-01-12T14:20:19.035Z,39.40
2018-01-12T14:22:22.533Z,38.40
2018-01-12T14:24:26.357Z,36.80
2018-01-12T14:26:32.823Z,33.70
2018-01-12T14:28:37.950Z,30.70
2018-01-12T14:30:42.437Z,33.40
2018-01-12T14:32:46.942Z,32.60
2018-01-12T14:34:50.334Z,29.60
2018-01-12T14:36:56.299Z,29.70
2018-01-12T14:39:00.492Z,31.40
2018-01-12T14:41:03.920Z,31.40
2018-01-12T14:43:07.302Z,29.60
2018-01-12T14:45:10.707Z,30.70
2018-01-12T14:47:14.821Z,32.10
2018-01-12T14:49:18.342Z,31.80
2018-01-12T14:51:22.576Z,35.30
2018-01-12T14:53:26.176Z,35.20
2018-01-12T14:55:30.532Z,36.20
2018-01-12T14:57:34.470Z,37.70
2018-01-12T14:59:38.961Z,39.10
2018-01-12T15:01:43.345Z,40.10
2018-01-12T15:03:57.626Z,40.10
2018-01-12T15:06:01.349Z,41.60
2018-01-12T15:08:07.094Z,44.30
2018-01-12T15:10:10.550Z,44.40
2018-01-12T15:12:13.925Z,44.70
2018-01-12T15:14:17.349Z,44.20
2018-01-12T15:16:20.807Z,45.60
2018-01-12T15:18:24.140Z,45.90
2018-01-12T15:20:27.698Z,46.80
2018-01-12T15:22:31.915Z,47.70
2018-01-12T15:24:35.347Z,48.40
2018-01-12T15:26:39.475Z,48.60
2018-01-12T15:28:43.772Z,48.40
2018-01-12T15:30:48.226Z,51.20
2018-01-12T15:32:51.706Z,51.10
2018-01-12T15:34:55.083Z,51.40
2018-01-12T15:36:58.467Z,49.90
2018-01-12T15:39:01.892Z,50.30
2018-01-12T15:41:05.404Z,51.00
2018-01-12T15:43:09.684Z,51.00
2018-01-12T15:45:13.090Z,50.30
2018-01-12T15:47:16.455Z,51.30
2018-01-12T15:49:21.966Z,51.60
2018-01-12T15:51:28.172Z,51.80
2018-01-12T15:53:35.095Z,50.30
2018-01-12T15:55:39.510Z,51.40
2018-01-12T15:57:42.916Z,51.40
2018-01-12T15:59:47.165Z,51.20
2018-01-12T16:01:50.703Z,51.20
2018-01-12T16:03:54.294Z,51.60
2018-01-12T16:05:58.676Z,50.40
2018-01-12T16:08:02.041Z,49.80
2018-01-12T16:10:06.220Z,51.40
2018-01-12T16:12:09.667Z,51.20
2018-01-12T16:14:14.524Z,50.60
2018-01-12T16:16:17.994Z,51.40
2018-01-12T16:18:22.180Z,52.10
2018-01-12T16:20:30.289Z,53.10
2018-01-12T16:22:34.134Z,53.30
2018-01-12T16:24:37.642Z,53.60
2018-01-12T16:26:41.110Z,52.20
2018-01-12T16:28:44.534Z,53.70
2018-01-12T16:30:49.040Z,54.00
2018-01-12T16:32:52.581Z,53.60
2018-01-12T16:34:56.158Z,54.30
2018-01-12T16:36:59.612Z,54.40
2018-01-12T16:39:03.493Z,54.10
2018-01-12T16:41:06.917Z,54.40
2018-01-12T16:43:10.345Z,54.50
2018-01-12T16:45:14.513Z,55.00
2018-01-12T16:47:17.961Z,55.10
2018-01-12T16:49:22.133Z,55.10
2018-01-12T16:51:25.560Z,55.20
2018-01-12T16:53:29.696Z,55.20
2018-01-12T16:55:33.350Z,55.10
2018-01-12T16:57:39.558Z,56.00
2018-01-12T16:59:42.982Z,55.10
2018-01-12T17:01:46.367Z,55.30
2018-01-12T17:03:50.022Z,56.10
2018-01-12T17:05:53.466Z,57.00
2018-01-12T17:07:59.809Z,57.40
2018-01-12T17:10:03.308Z,57.50
2018-01-12T17:12:06.687Z,57.20
2018-01-12T17:14:10.848Z,56.30
2018-01-12T17:16:17.296Z,56.10
2018-01-12T17:18:21.579Z,56.10
2018-01-12T17:20:26.154Z,56.70
2018-01-12T17:22:30.280Z,56.90
2018-01-12T17:24:34.752Z,56.60
2018-01-12T17:26:38.120Z,56.20
2018-01-12T17:28:41.617Z,56.80
2018-01-12T17:30:45.023Z,56.30
2018-01-12T17:32:48.465Z,56.60
2018-01-12T17:34:52.587Z,56.90
2018-01-12T17:36:56.252Z,56.90
2018-01-12T17:38:59.695Z,57.40
2018-01-12T17:41:03.108Z,56.80
2018-01-12T17:43:06.592Z,57.50
2018-01-12T17:45:10.712Z,57.20
2018-01-12T17:47:14.447Z,57.40
2018-01-12T17:49:17.862Z,57.30
2018-01-12T17:51:21.333Z,58.90
2018-01-12T17:53:25.516Z,57.50
2018-01-12T17:55:29.257Z,57.50
2018-01-12T17:57:33.127Z,57.40
2018-01-12T17:59:36.609Z,57.70
2018-01-12T18:01:39.986Z,57.70
2018-01-12T18:03:43.488Z,58.30
2018-01-12T18:05:46.889Z,58.40
2018-01-12T18:07:50.556Z,58.30
2018-01-12T18:09:55.007Z,58.30
2018-01-12T18:11:59.286Z,59.10
2018-01-12T18:14:02.971Z,58.60
2018-01-12T18:16:06.513Z,58.70
2018-01-12T18:18:10.085Z,58.00
2018-01-12T18:20:13.710Z,58.60
2018-01-12T18:22:19.122Z,58.30
2018-01-12T18:24:22.762Z,58.30
2018-01-12T18:26:26.370Z,59.00
2018-01-12T18:28:30.234Z,58.60
2018-01-12T18:30:35.271Z,60.20
2018-01-12T18:32:39.958Z,60.70
2018-01-12T18:34:54.245Z,60.20
2018-01-12T18:36:57.740Z,59.30
2018-01-12T18:39:02.111Z,59.60
2018-01-12T18:41:05.717Z,59.40
2018-01-12T18:43:09.138Z,59.60
2018-01-12T18:45:12.552Z,60.10
2018-01-12T18:47:15.982Z,61.10
2018-01-12T18:49:20.306Z,61.30
2018-01-12T18:51:24.007Z,61.10
2018-01-12T18:53:28.833Z,61.70
2018-01-12T18:55:32.277Z,61.50
2018-01-12T18:57:38.972Z,63.00
2018-01-12T18:59:42.412Z,62.20
2018-01-12T19:01:46.114Z,62.70
2018-01-12T19:03:49.481Z,62.70
2018-01-12T19:05:52.894Z,62.60
2018-01-12T19:07:56.286Z,63.00
2018-01-12T19:09:59.663Z,63.20
2018-01-12T19:12:04.314Z,63.40
2018-01-12T19:14:07.819Z,63.30
2018-01-12T19:16:11.233Z,63.10
2018-01-12T19:18:16.367Z,63.30
2018-01-12T19:20:21.098Z,63.30
2018-01-12T19:22:25.449Z,63.20
2018-01-12T19:24:28.909Z,63.10
2018-01-12T19:26:32.321Z,63.00
2018-01-12T19:28:35.755Z,63.20
2018-01-12T19:30:39.172Z,63.40
2018-01-12T19:32:44.019Z,63.40
2018-01-12T19:34:47.427Z,63.50
2018-01-12T19:36:50.818Z,63.40
2018-01-12T19:38:54.173Z,63.20
2018-01-12T19:40:57.558Z,63.50
2018-01-12T19:43:00.957Z,63.00
2018-01-12T19:45:04.630Z,63.00
2018-01-12T19:47:08.070Z,63.00
2018-01-12T19:49:11.524Z,63.20
2018-01-12T19:51:17.513Z,63.20
2018-01-12T19:53:21.305Z,63.20
2018-01-12T19:55:25.188Z,63.00
2018-01-12T19:57:29.459Z,62.80
2018-01-12T19:59:32.991Z,63.40
2018-01-12T20:01:37.183Z,62.80
2018-01-12T20:03:41.556Z,62.50
2018-01-12T20:05:45.735Z,61.30
2018-01-12T20:07:49.179Z,61.30
2018-01-12T20:09:55.681Z,60.20
2018-01-12T20:12:00.816Z,60.40
2018-01-12T20:14:05.070Z,60.70
2018-01-12T20:16:08.803Z,59.00
2018-01-12T20:18:12.663Z,59.50
2018-01-12T20:20:17.434Z,60.40
2018-01-12T20:22:21.063Z,61.80
2018-01-12T20:24:24.478Z,61.10
2018-01-12T20:26:27.914Z,61.60
2018-01-12T20:28:31.938Z,61.50
2018-01-12T20:30:35.482Z,61.40
2018-01-12T20:32:39.132Z,59.50
2018-01-12T20:34:43.522Z,59.60
2018-01-12T20:36:48.671Z,57.40
2018-01-12T20:38:52.054Z,57.40
2018-01-12T20:40:55.510Z,54.20
2018-01-12T20:42:58.919Z,52.60
2018-01-12T20:45:02.442Z,52.70
2018-01-12T20:47:05.843Z,52.50
2018-01-12T20:49:09.412Z,53.60
2018-01-12T20:51:12.892Z,54.40
2018-01-12T20:53:17.144Z,54.10
2018-01-12T20:55:20.553Z,53.90
2018-01-12T20:57:24.030Z,54.50
2018-01-12T20:59:27.475Z,54.40
2018-01-12T21:01:33.845Z,54.20
2018-01-12T21:03:38.161Z,54.20
2018-01-12T21:05:43.460Z,53.80
2018-01-12T21:07:47.119Z,53.90
2018-01-12T21:09:50.563Z,54.10
2018-01-12T21:11:53.930Z,52.40
2018-01-12T21:13:57.376Z,53.10
2018-01-12T21:16:05.598Z,53.10
2018-01-12T21:18:09.398Z,53.30
2018-01-12T21:20:12.953Z,53.90
2018-01-12T21:22:16.828Z,54.70
2018-01-12T21:24:21.938Z,54.00
2018-01-12T21:26:25.512Z,54.00
2018-01-12T21:28:29.801Z,53.50
2018-01-12T21:30:34.177Z,54.10
2018-01-12T21:32:37.626Z,54.10
2018-01-12T21:34:42.047Z,53.80
2018-01-12T21:36:47.043Z,54.00
2018-01-12T21:38:51.600Z,52.70
2018-01-12T21:40:55.398Z,52.90
2018-01-12T21:42:58.913Z,53.80
2018-01-12T21:45:03.418Z,53.00
2018-01-12T21:47:07.133Z,53.10
2018-01-12T21:49:11.762Z,52.90
2018-01-12T21:51:15.591Z,53.00
2018-01-12T21:53:20.021Z,53.20
2018-01-12T21:55:24.625Z,52.70
2018-01-12T21:57:29.062Z,53.10
2018-01-12T21:59:33.720Z,51.30
2018-01-12T22:01:38.209Z,52.10
2018-01-12T22:03:41.767Z,52.10
2018-01-12T22:05:45.587Z,52.20
2018-01-12T22:07:50.686Z,53.30
2018-01-12T22:09:55.035Z,51.70
2018-01-12T22:11:59.235Z,51.60
2018-01-12T22:14:02.761Z,51.40
2018-01-12T22:16:07.378Z,52.20
2018-01-12T22:18:11.138Z,52.50
2018-01-12T22:20:15.004Z,53.00
2018-01-12T22:22:18.383Z,52.40
2018-01-12T22:24:23.837Z,53.70
2018-01-12T22:26:27.705Z,53.00
2018-01-12T22:28:31.211Z,51.90
2018-01-12T22:30:34.901Z,52.50
2018-01-12T22:32:38.848Z,52.20
2018-01-12T22:34:43.905Z,51.60
2018-01-12T22:36:48.951Z,52.50
2018-01-12T22:38:53.537Z,51.70
2018-01-12T22:40:56.893Z,51.80
2018-01-12T22:43:00.433Z,52.00
2018-01-12T22:45:04.586Z,53.30
2018-01-12T22:47:07.993Z,52.70
2018-01-12T22:49:11.381Z,51.60
2018-01-12T22:51:14.776Z,51.50
2018-01-12T22:53:18.206Z,52.80
2018-01-12T22:55:21.646Z,51.40
2018-01-12T22:57:25.048Z,52.50
2018-01-12T22:59:28.412Z,53.60
2018-01-12T23:01:31.806Z,52.80
2018-01-12T23:03:35.198Z,52.60
2018-01-12T23:05:38.560Z,51.90
2018-01-12T23:07:41.927Z,52.50
2018-01-12T23:09:45.334Z,53.50
2018-01-12T23:11:48.709Z,51.70
2018-01-12T23:13:52.128Z,51.90
2018-01-12T23:15:55.527Z,51.60
2018-01-12T23:17:59.708Z,52.90
2018-01-12T23:20:03.110Z,52.20
2018-01-12T23:22:06.509Z,51.10
2018-01-12T23:24:09.902Z,51.50
2018-01-12T23:26:13.277Z,52.50
2018-01-12T23:28:16.671Z,54.10
2018-01-12T23:30:20.062Z,52.70
2018-01-12T23:32:23.443Z,51.60
2018-01-12T23:34:26.848Z,51.10
2018-01-12T23:36:30.212Z,51.10
2018-01-12T23:38:33.601Z,50.50
2018-01-12T23:40:37.019Z,49.90
2018-01-12T23:42:40.445Z,49.80
2018-01-12T23:44:44.616Z,50.00
2018-01-12T23:46:49.072Z,49.90
2018-01-12T23:48:52.436Z,49.40
2018-01-12T23:50:56.071Z,49.40
2018-01-12T23:52:59.438Z,49.60
2018-01-12T23:55:02.903Z,50.70
2018-01-12T23:57:06.281Z,50.90
2018-01-12T23:59:09.674Z,50.60
